createdAt,value
2022-08-28T00:01:57.157Z,12.23
2022-08-28T00:04:23.751Z,12.05
2022-08-28T00:06:50.110Z,11.95
2022-08-28T00:09:16.447Z,11.95
2022-08-28T00:11:42.753Z,12.20
2022-08-28T00:14:09.031Z,11.90
2022-08-28T00:16:35.422Z,11.88
2022-08-28T00:19:01.707Z,11.25
2022-08-28T00:21:28.061Z,10.98
2022-08-28T00:23:57.246Z,10.80
2022-08-28T00:26:23.604Z,11.40
2022-08-28T00:28:51.148Z,10.98
2022-08-28T00:31:17.751Z,11.60
2022-08-28T00:33:44.089Z,10.55
2022-08-28T00:36:10.405Z,10.38
2022-08-28T00:38:36.718Z,10.43
2022-08-28T00:41:03.766Z,10.45
2022-08-28T00:43:30.453Z,10.02
2022-08-28T00:45:56.816Z,10.88
2022-08-28T00:48:23.129Z,10.02
2022-08-28T00:50:49.506Z,10.38
2022-08-28T00:53:15.833Z,10.23
2022-08-28T00:55:42.277Z,10.25
2022-08-28T00:58:08.608Z,9.45
2022-08-28T01:00:34.953Z,9.65
2022-08-28T01:03:01.397Z,10.77
2022-08-28T01:05:28.037Z,9.07
2022-08-28T01:07:54.595Z,9.82
2022-08-28T01:10:20.945Z,9.95
2022-08-28T01:12:48.371Z,10.18
2022-08-28T01:15:15.005Z,10.07
2022-08-28T01:17:43.105Z,9.68
2022-08-28T01:20:09.626Z,9.50
2022-08-28T01:22:35.969Z,9.63
2022-08-28T01:25:02.337Z,10.27
2022-08-28T01:27:28.961Z,9.35
2022-08-28T01:29:55.456Z,9.93
2022-08-28T01:32:22.107Z,10.18
2022-08-28T01:34:48.443Z,9.68
2022-08-28T01:37:14.762Z,9.95
2022-08-28T01:39:41.280Z,9.80
2022-08-28T01:42:07.644Z,9.50
2022-08-28T01:44:33.932Z,9.05
2022-08-28T01:47:00.354Z,9.05
2022-08-28T01:49:26.869Z,9.63
2022-08-28T01:51:54.722Z,9.88
2022-08-28T01:54:21.246Z,9.68
2022-08-28T01:56:47.650Z,9.38
2022-08-28T01:59:13.939Z,9.70
2022-08-28T02:01:40.442Z,8.95
2022-08-28T02:04:06.920Z,9.75
2022-08-28T02:06:33.246Z,9.02
2022-08-28T02:08:59.621Z,8.63
2022-08-28T02:11:26.068Z,9.13
2022-08-28T02:13:54.332Z,9.38
2022-08-28T02:16:22.661Z,9.00
2022-08-28T02:18:49.098Z,9.02
2022-08-28T02:21:15.566Z,9.10
2022-08-28T02:23:41.890Z,9.40
2022-08-28T02:26:08.187Z,9.82
2022-08-28T02:28:34.536Z,9.15
2022-08-28T02:31:01.116Z,8.93
2022-08-28T02:33:27.554Z,8.98
2022-08-28T02:35:53.913Z,10.05
2022-08-28T02:38:20.237Z,9.55
2022-08-28T02:40:46.629Z,9.30
2022-08-28T02:43:13.212Z,8.68
2022-08-28T02:45:39.750Z,8.85
2022-08-28T02:48:11.977Z,8.93
2022-08-28T02:50:43.264Z,9.23
2022-08-28T02:53:09.908Z,9.27
2022-08-28T02:55:36.254Z,9.23
2022-08-28T02:58:02.589Z,9.00
2022-08-28T03:00:28.893Z,9.15
2022-08-28T03:02:55.369Z,9.73
2022-08-28T03:05:21.830Z,9.40
2022-08-28T03:07:48.130Z,9.40
2022-08-28T03:10:14.605Z,9.27
2022-08-28T03:12:40.974Z,9.82
2022-08-28T03:15:07.487Z,10.20
2022-08-28T03:17:33.944Z,8.95
2022-08-28T03:20:00.726Z,9.20
2022-08-28T03:22:27.202Z,9.63
2022-08-28T03:24:53.745Z,9.35
2022-08-28T03:27:20.138Z,9.02
2022-08-28T03:29:46.493Z,9.15
2022-08-28T03:32:12.841Z,9.48
2022-08-28T03:34:39.236Z,9.55
2022-08-28T03:37:05.672Z,9.43
2022-08-28T03:39:32.151Z,10.82
2022-08-28T03:41:58.560Z,9.77
2022-08-28T03:44:25.019Z,9.98
2022-08-28T03:46:51.565Z,9.60
2022-08-28T03:49:18.221Z,9.63
2022-08-28T03:51:46.079Z,9.98
2022-08-28T03:54:12.621Z,9.65
2022-08-28T03:56:38.976Z,9.63
2022-08-28T03:59:05.482Z,9.57
2022-08-28T04:01:32.021Z,9.75
2022-08-28T04:03:58.616Z,10.18
2022-08-28T04:06:24.953Z,9.38
2022-08-28T04:08:51.453Z,9.45
2022-08-28T04:11:18.306Z,9.65
2022-08-28T04:13:44.885Z,9.65
2022-08-28T04:16:11.636Z,9.52
2022-08-28T04:18:41.236Z,9.60
2022-08-28T04:21:07.673Z,9.15
2022-08-28T04:23:35.031Z,10.15
2022-08-28T04:26:01.365Z,9.88
2022-08-28T04:28:27.805Z,10.13
2022-08-28T04:30:54.165Z,10.20
2022-08-28T04:33:20.505Z,9.88
2022-08-28T04:35:46.947Z,11.00
2022-08-28T04:38:13.474Z,11.95
2022-08-28T04:40:41.022Z,11.07
2022-08-28T04:43:07.439Z,9.68
2022-08-28T04:45:33.822Z,9.88
2022-08-28T04:48:00.286Z,9.43
2022-08-28T04:50:31.710Z,10.13
2022-08-28T04:52:58.013Z,10.30
2022-08-28T04:55:24.417Z,10.40
2022-08-28T04:58:10.731Z,9.25
2022-08-28T05:00:37.135Z,9.43
2022-08-28T05:03:03.537Z,9.07
2022-08-28T05:05:29.937Z,11.85
2022-08-28T05:07:56.319Z,9.38
2022-08-28T05:10:23.240Z,11.40
2022-08-28T05:12:49.624Z,9.82
2022-08-28T05:15:16.009Z,10.02
2022-08-28T05:17:42.330Z,9.13
2022-08-28T05:20:08.692Z,10.40
2022-08-28T05:22:35.017Z,10.98
2022-08-28T05:25:01.368Z,9.35
2022-08-28T05:27:28.008Z,10.32
2022-08-28T05:29:57.347Z,11.50
2022-08-28T05:32:27.602Z,10.10
2022-08-28T05:34:54.454Z,9.05
2022-08-28T05:37:20.806Z,9.80
2022-08-28T05:39:47.198Z,10.32
2022-08-28T05:42:13.824Z,9.90
2022-08-28T05:44:40.245Z,8.98
2022-08-28T05:47:06.510Z,9.35
2022-08-28T05:49:32.962Z,9.50
2022-08-28T05:51:59.272Z,9.80
2022-08-28T05:54:25.653Z,10.40
2022-08-28T05:56:51.956Z,9.77
2022-08-28T05:59:18.386Z,9.55
2022-08-28T06:01:44.766Z,8.95
2022-08-28T06:04:11.228Z,8.52
2022-08-28T06:06:37.606Z,9.20
2022-08-28T06:09:03.904Z,9.63
2022-08-28T06:11:30.989Z,9.60
2022-08-28T06:13:57.751Z,9.60
2022-08-28T06:16:24.366Z,9.88
2022-08-28T06:18:51.154Z,9.40
2022-08-28T06:21:17.522Z,9.85
2022-08-28T06:23:44.034Z,9.73
2022-08-28T06:26:11.104Z,9.07
2022-08-28T06:28:37.581Z,9.35
2022-08-28T06:31:23.288Z,9.10
2022-08-28T06:33:50.361Z,9.63
2022-08-28T06:36:16.882Z,9.48
2022-08-28T06:38:43.400Z,10.43
2022-08-28T06:41:09.694Z,9.50
2022-08-28T06:43:36.082Z,10.57
2022-08-28T06:46:02.501Z,9.15
2022-08-28T06:48:28.984Z,8.82
2022-08-28T06:50:55.381Z,8.55
2022-08-28T06:53:21.725Z,9.20
2022-08-28T06:55:48.241Z,9.52
2022-08-28T06:58:14.671Z,8.90
2022-08-28T07:00:41.153Z,9.60
2022-08-28T07:03:07.672Z,11.50
2022-08-28T07:05:34.806Z,26.83
2022-08-28T07:08:01.150Z,24.02
2022-08-28T07:10:27.725Z,25.50
2022-08-28T07:12:54.110Z,24.48
2022-08-28T07:15:20.464Z,19.50
2022-08-28T07:17:46.838Z,21.42
2022-08-28T07:20:13.437Z,15.75
2022-08-28T07:22:39.804Z,18.67
2022-08-28T07:25:06.181Z,17.77
2022-08-28T07:27:32.574Z,14.65
2022-08-28T07:29:58.942Z,12.60
2022-08-28T07:32:25.529Z,19.42
2022-08-28T07:34:52.006Z,16.05
2022-08-28T07:37:18.752Z,12.35
2022-08-28T07:39:45.273Z,19.55
2022-08-28T07:42:11.822Z,25.70
2022-08-28T07:44:38.221Z,26.98
2022-08-28T07:47:04.546Z,23.10
2022-08-28T07:49:30.926Z,19.25
2022-08-28T07:51:57.263Z,16.45
2022-08-28T07:54:23.960Z,13.65
2022-08-28T07:56:50.244Z,14.63
2022-08-28T07:59:16.989Z,12.50
2022-08-28T08:01:43.834Z,14.35
2022-08-28T08:04:10.524Z,14.10
2022-08-28T08:06:36.844Z,14.18
2022-08-28T08:09:03.217Z,12.88
2022-08-28T08:11:31.066Z,11.85
2022-08-28T08:13:58.980Z,12.17
2022-08-28T08:16:25.547Z,13.95
2022-08-28T08:18:52.039Z,12.70
2022-08-28T08:21:18.337Z,9.32
2022-08-28T08:23:44.700Z,12.65
2022-08-28T08:26:11.150Z,13.18
2022-08-28T08:28:37.569Z,19.88
2022-08-28T08:31:04.140Z,21.05
2022-08-28T08:33:30.478Z,25.73
2022-08-28T08:35:56.817Z,22.08
2022-08-28T08:38:23.327Z,19.75
2022-08-28T08:40:49.732Z,19.55
2022-08-28T08:43:16.190Z,13.50
2022-08-28T08:45:42.538Z,19.98
2022-08-28T08:48:09.595Z,18.45
2022-08-28T08:50:37.249Z,12.85
2022-08-28T08:53:03.552Z,17.80
2022-08-28T08:55:29.878Z,13.50
2022-08-28T08:57:56.381Z,15.75
2022-08-28T09:00:22.917Z,13.95
2022-08-28T09:02:50.174Z,13.73
2022-08-28T09:05:16.734Z,15.93
2022-08-28T09:07:43.212Z,19.55
2022-08-28T09:10:09.633Z,15.80
2022-08-28T09:12:35.962Z,13.13
2022-08-28T09:15:02.748Z,14.95
2022-08-28T09:17:29.156Z,12.48
2022-08-28T09:19:55.703Z,15.20
2022-08-28T09:22:22.096Z,18.77
2022-08-28T09:24:48.469Z,15.65
2022-08-28T09:27:16.942Z,16.13
2022-08-28T09:29:43.343Z,12.05
2022-08-28T09:32:09.734Z,17.70
2022-08-28T09:34:38.946Z,14.20
2022-08-28T09:37:05.834Z,10.75
2022-08-28T09:39:32.206Z,15.82
2022-08-28T09:41:58.664Z,17.75
2022-08-28T09:44:25.197Z,35.63
2022-08-28T09:46:52.490Z,46.13
2022-08-28T09:49:18.913Z,42.53
2022-08-28T09:51:45.470Z,33.10
2022-08-28T09:54:11.881Z,29.08
2022-08-28T09:56:38.262Z,18.60
2022-08-28T09:59:04.665Z,19.13
2022-08-28T10:01:31.096Z,13.82
2022-08-28T10:03:57.496Z,18.23
2022-08-28T10:06:24.933Z,17.83
2022-08-28T10:08:53.132Z,12.52
2022-08-28T10:11:19.741Z,15.30
2022-08-28T10:13:46.122Z,13.52
2022-08-28T10:16:12.532Z,11.88
2022-08-28T10:18:38.968Z,19.08
2022-08-28T10:21:05.647Z,17.10
2022-08-28T10:23:32.218Z,19.92
2022-08-28T10:25:58.662Z,19.65
2022-08-28T10:28:25.057Z,13.95
2022-08-28T10:30:51.419Z,14.48
2022-08-28T10:33:17.953Z,17.02
2022-08-28T10:35:44.277Z,13.38
2022-08-28T10:38:11.104Z,18.00
2022-08-28T10:40:37.702Z,17.77
2022-08-28T10:43:04.438Z,17.95
2022-08-28T10:45:31.327Z,16.30
2022-08-28T10:47:57.638Z,18.55
2022-08-28T10:50:23.983Z,11.68
2022-08-28T10:52:50.359Z,20.05
2022-08-28T10:55:16.665Z,27.98
2022-08-28T10:57:43.015Z,30.27
2022-08-28T11:00:09.369Z,24.33
2022-08-28T11:02:35.829Z,19.95
2022-08-28T11:05:02.268Z,21.63
2022-08-28T11:07:29.246Z,31.17
2022-08-28T11:09:55.557Z,26.02
2022-08-28T11:12:21.931Z,39.90
2022-08-28T11:14:48.907Z,32.53
2022-08-28T11:17:15.362Z,27.08
2022-08-28T11:19:44.501Z,27.00
2022-08-28T11:22:11.797Z,19.73
2022-08-28T11:24:38.292Z,15.52
2022-08-28T11:27:07.903Z,16.92
2022-08-28T11:29:34.217Z,17.70
2022-08-28T11:32:00.525Z,18.77
2022-08-28T11:34:26.874Z,15.77
2022-08-28T11:36:53.404Z,16.88
2022-08-28T11:39:19.717Z,20.10
2022-08-28T11:41:46.093Z,19.75
2022-08-28T11:44:12.437Z,23.17
2022-08-28T11:46:38.923Z,17.92
2022-08-28T11:49:05.487Z,16.92
2022-08-28T11:51:32.138Z,16.75
2022-08-28T11:53:58.469Z,19.00
2022-08-28T11:56:28.287Z,15.27
2022-08-28T11:58:58.114Z,15.27
2022-08-28T12:01:24.507Z,61.08
2022-08-28T12:03:50.966Z,65.30
2022-08-28T12:06:17.392Z,80.78
2022-08-28T12:08:43.823Z,56.88
2022-08-28T12:11:10.238Z,49.20
2022-08-28T12:13:36.562Z,38.58
2022-08-28T12:16:03.092Z,31.38
2022-08-28T12:18:29.814Z,25.27
2022-08-28T12:21:00.186Z,22.23
2022-08-28T12:23:27.060Z,19.92
2022-08-28T12:25:53.510Z,19.13
2022-08-28T12:28:26.645Z,15.63
2022-08-28T12:30:53.329Z,17.17
2022-08-28T12:33:19.809Z,18.25
2022-08-28T12:35:46.281Z,30.52
2022-08-28T12:38:12.730Z,26.90
2022-08-28T12:40:39.361Z,14.93
2022-08-28T12:43:05.697Z,15.75
2022-08-28T12:45:32.077Z,14.68
2022-08-28T12:47:58.482Z,18.42
2022-08-28T12:50:24.914Z,13.10
2022-08-28T12:52:51.469Z,12.73
2022-08-28T12:55:23.771Z,16.65
2022-08-28T12:57:50.878Z,16.52
2022-08-28T13:00:17.334Z,13.55
2022-08-28T13:02:46.503Z,11.38
2022-08-28T13:05:16.494Z,14.00
2022-08-28T13:07:42.894Z,14.85
2022-08-28T13:10:09.550Z,16.70
2022-08-28T13:12:54.487Z,14.20
2022-08-28T13:15:24.431Z,11.75
2022-08-28T13:17:50.995Z,10.70
2022-08-28T13:20:17.439Z,12.05
2022-08-28T13:22:50.538Z,14.63
2022-08-28T13:25:17.593Z,16.15
2022-08-28T13:27:43.957Z,12.40
2022-08-28T13:30:10.330Z,15.48
2022-08-28T13:32:36.716Z,15.82
2022-08-28T13:35:03.254Z,20.58
2022-08-28T13:37:29.634Z,347.33
2022-08-28T13:39:56.230Z,164.75
2022-08-28T13:42:22.746Z,161.90
2022-08-28T13:44:49.120Z,127.07
2022-08-28T13:47:15.566Z,62.97
2022-08-28T13:49:41.882Z,51.03
2022-08-28T13:52:08.303Z,48.60
2022-08-28T13:54:35.889Z,44.63
2022-08-28T13:57:02.373Z,37.00
2022-08-28T13:59:30.039Z,30.38
2022-08-28T14:01:57.506Z,31.73
2022-08-28T14:04:24.149Z,28.88
2022-08-28T14:06:50.813Z,39.88
2022-08-28T14:09:17.766Z,33.45
2022-08-28T14:11:44.439Z,31.60
2022-08-28T14:14:10.823Z,40.85
2022-08-28T14:16:39.764Z,41.60
2022-08-28T14:19:07.279Z,43.30
2022-08-28T14:21:33.665Z,41.47
2022-08-28T14:24:00.014Z,41.38
2022-08-28T14:26:26.396Z,38.10
2022-08-28T14:28:52.819Z,36.50
2022-08-28T14:31:19.396Z,37.72
2022-08-28T14:33:45.777Z,35.42
2022-08-28T14:36:12.210Z,35.55
2022-08-28T14:38:38.557Z,35.83
2022-08-28T14:41:04.970Z,34.28
2022-08-28T14:43:31.460Z,36.05
2022-08-28T14:45:57.756Z,34.13
2022-08-28T14:48:24.258Z,36.22
2022-08-28T14:50:50.806Z,36.22
2022-08-28T14:53:17.201Z,34.05
2022-08-28T14:55:43.765Z,34.40
2022-08-28T14:58:10.354Z,33.47
2022-08-28T15:00:36.735Z,32.10
2022-08-28T15:03:03.411Z,32.72
2022-08-28T15:05:29.742Z,32.05
2022-08-28T15:07:56.098Z,31.98
2022-08-28T15:10:22.717Z,31.85
2022-08-28T15:12:49.210Z,30.33
2022-08-28T15:15:16.086Z,29.70
2022-08-28T15:17:42.481Z,30.70
2022-08-28T15:20:08.914Z,29.48
2022-08-28T15:22:35.405Z,29.13
2022-08-28T15:25:01.705Z,28.05
2022-08-28T15:27:28.106Z,28.48
2022-08-28T15:29:54.642Z,28.50
2022-08-28T15:32:20.972Z,26.48
2022-08-28T15:34:47.350Z,27.27
2022-08-28T15:37:13.714Z,26.98
2022-08-28T15:39:40.022Z,26.50
2022-08-28T15:42:06.397Z,28.50
2022-08-28T15:44:32.982Z,26.63
2022-08-28T15:46:59.424Z,26.95
2022-08-28T15:49:26.144Z,26.13
2022-08-28T15:51:52.614Z,25.55
2022-08-28T15:54:19.130Z,24.77
2022-08-28T15:56:45.582Z,24.23
2022-08-28T15:59:14.301Z,24.20
2022-08-28T16:01:41.073Z,23.70
2022-08-28T16:04:07.715Z,25.67
2022-08-28T16:06:34.185Z,23.58
2022-08-28T16:09:00.479Z,23.73
2022-08-28T16:11:26.889Z,23.75
2022-08-28T16:13:54.233Z,23.77
2022-08-28T16:16:20.866Z,22.27
2022-08-28T16:18:47.370Z,24.08
2022-08-28T16:21:13.949Z,22.15
2022-08-28T16:23:42.145Z,22.33
2022-08-28T16:26:08.484Z,22.67
2022-08-28T16:28:34.865Z,21.85
2022-08-28T16:31:04.559Z,21.88
2022-08-28T16:33:33.749Z,21.95
2022-08-28T16:36:00.157Z,20.65
2022-08-28T16:38:26.566Z,19.50
2022-08-28T16:40:52.953Z,20.58
2022-08-28T16:43:19.326Z,20.60
2022-08-28T16:45:45.772Z,18.92
2022-08-28T16:48:12.329Z,18.10
2022-08-28T16:50:39.084Z,18.17
2022-08-28T16:53:07.193Z,17.70
2022-08-28T16:55:34.417Z,18.88
2022-08-28T16:58:00.737Z,18.20
2022-08-28T17:00:27.622Z,19.15
2022-08-28T17:02:54.278Z,17.02
2022-08-28T17:05:20.781Z,17.05
2022-08-28T17:07:47.224Z,18.10
2022-08-28T17:10:13.625Z,16.67
2022-08-28T17:12:40.043Z,16.58
2022-08-28T17:15:06.406Z,16.38
2022-08-28T17:17:32.805Z,16.88
2022-08-28T17:19:59.182Z,17.85
2022-08-28T17:22:27.300Z,16.85
2022-08-28T17:24:54.073Z,17.02
2022-08-28T17:27:22.290Z,16.85
2022-08-28T17:29:49.267Z,16.80
2022-08-28T17:32:15.668Z,16.40
2022-08-28T17:34:42.019Z,18.08
2022-08-28T17:37:08.408Z,17.38
2022-08-28T17:39:34.748Z,16.58
2022-08-28T17:42:01.094Z,18.27
2022-08-28T17:44:29.109Z,17.05
2022-08-28T17:46:55.663Z,17.75
2022-08-28T17:49:22.151Z,17.45
2022-08-28T17:51:48.501Z,17.05
2022-08-28T17:54:14.841Z,18.05
2022-08-28T17:56:41.224Z,16.30
2022-08-28T17:59:07.801Z,16.77
2022-08-28T18:01:34.259Z,16.38
2022-08-28T18:04:00.652Z,16.75
2022-08-28T18:06:27.236Z,16.60
2022-08-28T18:08:53.894Z,15.57
2022-08-28T18:11:20.301Z,17.42
2022-08-28T18:13:46.950Z,16.67
2022-08-28T18:16:13.539Z,16.27
2022-08-28T18:18:40.103Z,15.93
2022-08-28T18:21:06.664Z,16.85
2022-08-28T18:23:33.278Z,16.60
2022-08-28T18:25:59.655Z,16.77
2022-08-28T18:28:26.293Z,15.50
2022-08-28T18:30:52.755Z,16.05
2022-08-28T18:33:19.381Z,15.68
2022-08-28T18:35:49.409Z,15.18
2022-08-28T18:38:15.925Z,15.10
2022-08-28T18:40:42.512Z,15.60
2022-08-28T18:43:08.885Z,15.23
2022-08-28T18:45:35.186Z,15.82
2022-08-28T18:48:01.543Z,16.25
2022-08-28T18:50:27.924Z,15.13
2022-08-28T18:52:54.455Z,14.63
2022-08-28T18:55:21.237Z,15.30
2022-08-28T18:57:50.013Z,13.90
2022-08-28T19:00:18.252Z,14.02
2022-08-28T19:02:44.781Z,14.45
2022-08-28T19:05:11.698Z,14.77
2022-08-28T19:07:38.089Z,14.23
2022-08-28T19:10:04.549Z,13.50
2022-08-28T19:12:30.875Z,14.23
2022-08-28T19:14:57.237Z,13.38
2022-08-28T19:17:23.914Z,14.48
2022-08-28T19:19:50.416Z,14.25
2022-08-28T19:22:16.941Z,13.75
2022-08-28T19:24:43.248Z,13.60
2022-08-28T19:27:10.011Z,13.50
2022-08-28T19:29:36.319Z,12.90
2022-08-28T19:32:02.713Z,12.18
2022-08-28T19:34:29.037Z,13.32
2022-08-28T19:36:55.610Z,13.27
2022-08-28T19:39:23.599Z,13.25
2022-08-28T19:41:50.222Z,12.30
2022-08-28T19:44:16.536Z,12.95
2022-08-28T19:46:43.297Z,13.10
2022-08-28T19:49:09.685Z,12.65
2022-08-28T19:51:36.117Z,12.93
2022-08-28T19:54:02.817Z,12.90
2022-08-28T19:56:29.281Z,11.73
2022-08-28T19:58:55.665Z,11.90
2022-08-28T20:01:22.078Z,11.93
2022-08-28T20:03:48.522Z,12.45
2022-08-28T20:06:15.048Z,12.07
2022-08-28T20:08:41.516Z,12.30
2022-08-28T20:11:08.046Z,11.75
2022-08-28T20:13:34.577Z,11.40
2022-08-28T20:16:01.010Z,11.82
2022-08-28T20:18:27.605Z,11.35
2022-08-28T20:20:54.205Z,11.77
2022-08-28T20:23:20.593Z,12.23
2022-08-28T20:25:46.913Z,11.90
2022-08-28T20:28:13.470Z,11.75
2022-08-28T20:30:40.328Z,11.20
2022-08-28T20:33:06.826Z,11.13
2022-08-28T20:35:33.261Z,11.82
2022-08-28T20:37:59.601Z,11.75
2022-08-28T20:40:26.058Z,11.68
2022-08-28T20:42:54.045Z,11.43
2022-08-28T20:45:20.422Z,10.68
2022-08-28T20:47:46.817Z,11.18
2022-08-28T20:50:13.220Z,11.13
2022-08-28T20:52:39.594Z,11.10
2022-08-28T20:55:06.146Z,11.10
2022-08-28T20:57:32.505Z,10.82
2022-08-28T21:00:02.244Z,11.07
2022-08-28T21:02:31.705Z,10.90
2022-08-28T21:04:58.001Z,10.60
2022-08-28T21:07:24.473Z,10.90
2022-08-28T21:10:04.626Z,10.40
2022-08-28T21:12:33.018Z,10.43
2022-08-28T21:14:59.392Z,10.57
2022-08-28T21:17:29.471Z,10.98
2022-08-28T21:19:56.854Z,10.70
2022-08-28T21:22:23.369Z,10.55
2022-08-28T21:24:50.775Z,11.18
2022-08-28T21:27:18.502Z,10.18
2022-08-28T21:29:45.084Z,10.50
2022-08-28T21:32:11.721Z,10.48
2022-08-28T21:34:38.042Z,10.57
2022-08-28T21:37:04.358Z,10.98
2022-08-28T21:39:30.933Z,10.82
2022-08-28T21:41:57.316Z,10.60
2022-08-28T21:44:23.629Z,9.20
2022-08-28T21:46:50.232Z,10.35
2022-08-28T21:49:16.677Z,10.15
2022-08-28T21:51:43.219Z,9.88
2022-08-28T21:54:09.580Z,9.73
2022-08-28T21:56:36.109Z,10.43
2022-08-28T21:59:02.450Z,9.63
2022-08-28T22:01:28.920Z,10.00
2022-08-28T22:03:55.402Z,9.50
2022-08-28T22:06:21.773Z,9.30
2022-08-28T22:08:48.530Z,10.13
2022-08-28T22:11:14.929Z,9.18
2022-08-28T22:13:43.589Z,9.82
2022-08-28T22:16:10.017Z,9.27
2022-08-28T22:18:36.603Z,9.50
2022-08-28T22:21:02.929Z,9.77
2022-08-28T22:23:29.298Z,8.70
2022-08-28T22:25:55.656Z,12.40
2022-08-28T22:28:23.286Z,9.60
2022-08-28T22:30:49.688Z,9.52
2022-08-28T22:33:16.375Z,9.63
2022-08-28T22:35:42.850Z,8.63
2022-08-28T22:38:09.738Z,9.50
2022-08-28T22:40:36.175Z,8.98
2022-08-28T22:43:02.593Z,9.30
2022-08-28T22:45:28.994Z,8.85
2022-08-28T22:47:55.398Z,8.32
2022-08-28T22:50:21.697Z,9.10
2022-08-28T22:52:48.001Z,9.20
2022-08-28T22:55:14.318Z,8.45
2022-08-28T22:57:40.761Z,9.15
2022-08-28T23:00:07.296Z,9.60
2022-08-28T23:02:33.829Z,8.75
2022-08-28T23:05:00.212Z,9.07
2022-08-28T23:07:26.726Z,9.23
2022-08-28T23:09:53.049Z,8.73
2022-08-28T23:12:19.458Z,8.70
2022-08-28T23:14:48.528Z,8.73
2022-08-28T23:17:15.253Z,8.83
2022-08-28T23:19:43.293Z,8.63
2022-08-28T23:22:13.889Z,8.27
2022-08-28T23:24:40.214Z,8.13
2022-08-28T23:27:32.369Z,8.35
2022-08-28T23:29:53.190Z,9.02
2022-08-28T23:32:20.088Z,9.15
2022-08-28T23:34:46.506Z,7.90
2022-08-28T23:37:13.005Z,8.38
2022-08-28T23:39:39.410Z,8.60
2022-08-28T23:42:05.780Z,8.63
2022-08-28T23:44:32.309Z,8.25
2022-08-28T23:46:58.790Z,7.50
2022-08-28T23:49:27.027Z,7.55
2022-08-28T23:51:53.554Z,7.43
2022-08-28T23:54:19.912Z,8.70
2022-08-28T23:56:46.590Z,7.78
2022-08-28T23:59:12.949Z,8.30
